N15FM EPNC-EPGY
Flight info
| Callsign | N15FM |
|---|---|
| Flight time | 1h 22m |
| Altitude | 4000 |
| Route | DCT EPNCA DCT UVOGE IFR UVOGE/N0165A4000 DCT OTMAX DCT UDROV DCT SYN STAY1/0100 SYN DCT UDROV DCT OTMAX DCT IVDIR |
| Aircraft | BE60/L-SDFGRY/C |
Departure
| Time | 2026-04-29 08:54 |
|---|---|
| Airport | Nasielsk-Chrcynno Airfield (EPNC) |
Arrival
| Time | 2026-04-29 10:16 |
|---|---|
| Airport | Grądy Airfield (EPGY) |
| Time | Latitude | Longitude | Altitude | Speed | Heading |
|---|---|---|---|---|---|
| 2026-04-29 08:35 | 52.57394 | 20.86457 | 370 ft | 0 kts | 168° |
| 2026-04-29 08:46 | 52.57381 | 20.86451 | 370 ft | 4 kts | 225° |
| 2026-04-29 08:47 | 52.57404 | 20.86424 | 370 ft | 7 kts | 27° |
| 2026-04-29 08:47 | 52.57433 | 20.86508 | 371 ft | 10 kts | 70° |
| 2026-04-29 08:47 | 52.57438 | 20.86638 | 371 ft | 13 kts | 93° |
| 2026-04-29 08:47 | 52.57430 | 20.86808 | 372 ft | 17 kts | 117° |
| 2026-04-29 08:48 | 52.57325 | 20.86970 | 371 ft | 24 kts | 137° |
| 2026-04-29 08:48 | 52.57195 | 20.87179 | 368 ft | 29 kts | 146° |
| 2026-04-29 08:48 | 52.57027 | 20.87414 | 361 ft | 33 kts | 140° |
| 2026-04-29 08:48 | 52.56902 | 20.87576 | 360 ft | 17 kts | 139° |
| 2026-04-29 08:49 | 52.56843 | 20.87647 | 363 ft | 6 kts | 107° |
| 2026-04-29 08:49 | 52.56857 | 20.87652 | 359 ft | 0 kts | 319° |
| 2026-04-29 08:53 | 52.56892 | 20.87606 | 360 ft | 27 kts | 321° |
| 2026-04-29 08:54 | 52.57227 | 20.87106 | 394 ft | 92 kts | 320° |
| 2026-04-29 08:54 | 52.57690 | 20.86325 | 864 ft | 92 kts | 321° |
| 2026-04-29 08:54 | 52.58145 | 20.85546 | 1407 ft | 101 kts | 322° |
| 2026-04-29 08:54 | 52.58676 | 20.84737 | 1841 ft | 106 kts | 332° |
| 2026-04-29 08:55 | 52.59391 | 20.84430 | 2246 ft | 110 kts | 7° |
| 2026-04-29 08:55 | 52.60111 | 20.84991 | 2605 ft | 120 kts | 34° |
| 2026-04-29 08:55 | 52.60738 | 20.85791 | 3194 ft | 111 kts | 34° |
| 2026-04-29 08:55 | 52.61403 | 20.86534 | 3537 ft | 119 kts | 22° |
| 2026-04-29 08:56 | 52.62211 | 20.86868 | 3925 ft | 122 kts | 9° |
| 2026-04-29 08:56 | 52.63096 | 20.87150 | 4015 ft | 138 kts | 12° |
| 2026-04-29 08:56 | 52.64057 | 20.87588 | 4012 ft | 148 kts | 18° |
| 2026-04-29 08:56 | 52.65041 | 20.88144 | 3987 ft | 154 kts | 19° |
| 2026-04-29 08:57 | 52.66067 | 20.88722 | 3987 ft | 156 kts | 14° |
| 2026-04-29 08:57 | 52.67125 | 20.89173 | 3973 ft | 157 kts | 12° |
| 2026-04-29 08:57 | 52.68193 | 20.89459 | 3999 ft | 155 kts | 7° |
| 2026-04-29 08:57 | 52.69266 | 20.89639 | 4015 ft | 155 kts | 6° |
| 2026-04-29 08:58 | 52.70331 | 20.89792 | 4046 ft | 155 kts | 5° |
| 2026-04-29 08:58 | 52.71417 | 20.89952 | 3989 ft | 160 kts | 5° |
| 2026-04-29 08:58 | 52.72358 | 20.90106 | 3984 ft | 160 kts | 6° |
| 2026-04-29 08:58 | 52.73442 | 20.90331 | 3969 ft | 160 kts | 12° |
| 2026-04-29 08:59 | 52.74439 | 20.91125 | 3963 ft | 160 kts | 28° |
| 2026-04-29 08:59 | 52.75422 | 20.91959 | 3990 ft | 159 kts | 24° |
| 2026-04-29 08:59 | 52.76369 | 20.92751 | 3987 ft | 159 kts | 26° |
| 2026-04-29 08:59 | 52.77280 | 20.93539 | 3997 ft | 159 kts | 26° |
| 2026-04-29 09:00 | 52.78255 | 20.94406 | 3971 ft | 161 kts | 27° |
| 2026-04-29 09:00 | 52.79250 | 20.95236 | 3968 ft | 159 kts | 23° |
| 2026-04-29 09:00 | 52.80256 | 20.96001 | 3943 ft | 160 kts | 22° |
| 2026-04-29 09:00 | 52.81258 | 20.96757 | 4011 ft | 157 kts | 23° |
| 2026-04-29 09:01 | 52.82254 | 20.97516 | 3993 ft | 159 kts | 22° |
| 2026-04-29 09:01 | 52.83267 | 20.98255 | 3959 ft | 160 kts | 21° |
| 2026-04-29 09:01 | 52.84297 | 20.98919 | 3995 ft | 157 kts | 18° |
| 2026-04-29 09:01 | 52.85326 | 20.99571 | 3931 ft | 161 kts | 20° |
| 2026-04-29 09:02 | 52.86405 | 21.00122 | 3855 ft | 163 kts | 16° |
| 2026-04-29 09:02 | 52.87446 | 21.00895 | 3778 ft | 167 kts | 27° |
| 2026-04-29 09:02 | 52.88454 | 21.01777 | 3859 ft | 161 kts | 25° |
| 2026-04-29 09:02 | 52.89410 | 21.02679 | 3946 ft | 158 kts | 32° |
| 2026-04-29 09:03 | 52.90306 | 21.03749 | 3929 ft | 160 kts | 33° |
| 2026-04-29 09:03 | 52.91241 | 21.04673 | 3974 ft | 159 kts | 25° |
| 2026-04-29 09:03 | 52.92243 | 21.05516 | 3988 ft | 159 kts | 25° |
| 2026-04-29 09:03 | 52.93208 | 21.06370 | 4005 ft | 160 kts | 26° |
| 2026-04-29 09:04 | 52.94184 | 21.07227 | 4035 ft | 160 kts | 25° |
| 2026-04-29 09:04 | 52.95182 | 21.08054 | 4029 ft | 161 kts | 24° |
| 2026-04-29 09:04 | 52.96181 | 21.08876 | 4027 ft | 162 kts | 25° |
| 2026-04-29 09:04 | 52.97185 | 21.09763 | 3970 ft | 164 kts | 26° |
| 2026-04-29 09:05 | 52.98179 | 21.10664 | 3988 ft | 162 kts | 26° |
| 2026-04-29 09:05 | 52.99172 | 21.11538 | 3971 ft | 162 kts | 25° |
| 2026-04-29 09:05 | 53.00170 | 21.12359 | 4003 ft | 159 kts | 24° |
| 2026-04-29 09:05 | 53.01177 | 21.13142 | 4003 ft | 161 kts | 23° |
| 2026-04-29 09:06 | 53.02193 | 21.13923 | 3986 ft | 161 kts | 23° |
| 2026-04-29 09:06 | 53.03200 | 21.14714 | 3991 ft | 160 kts | 24° |
| 2026-04-29 09:06 | 53.04193 | 21.15523 | 3983 ft | 159 kts | 24° |
| 2026-04-29 09:06 | 53.05179 | 21.16360 | 3987 ft | 158 kts | 25° |
| 2026-04-29 09:07 | 53.06167 | 21.17186 | 3930 ft | 161 kts | 25° |
| 2026-04-29 09:07 | 53.07165 | 21.18017 | 3945 ft | 159 kts | 24° |
| 2026-04-29 09:07 | 53.08163 | 21.18759 | 4003 ft | 154 kts | 13° |
| 2026-04-29 09:07 | 53.09193 | 21.18433 | 3996 ft | 159 kts | 326° |
| 2026-04-29 09:08 | 53.09905 | 21.16979 | 3943 ft | 166 kts | 310° |
| 2026-04-29 09:08 | 53.10657 | 21.15514 | 3907 ft | 165 kts | 317° |
| 2026-04-29 09:08 | 53.11430 | 21.14142 | 3957 ft | 162 kts | 318° |
| 2026-04-29 09:08 | 53.12181 | 21.12741 | 3999 ft | 162 kts | 314° |
| 2026-04-29 09:09 | 53.12920 | 21.11355 | 3995 ft | 163 kts | 316° |
| 2026-04-29 09:09 | 53.13643 | 21.09898 | 3990 ft | 165 kts | 310° |
| 2026-04-29 09:09 | 53.14319 | 21.08346 | 3972 ft | 166 kts | 310° |
| 2026-04-29 09:09 | 53.14982 | 21.06772 | 3995 ft | 166 kts | 309° |
| 2026-04-29 09:10 | 53.15685 | 21.05256 | 4006 ft | 166 kts | 314° |
| 2026-04-29 09:10 | 53.16433 | 21.03780 | 3995 ft | 167 kts | 313° |
| 2026-04-29 09:10 | 53.17151 | 21.02270 | 4045 ft | 165 kts | 311° |
| 2026-04-29 09:10 | 53.17814 | 21.00725 | 4103 ft | 164 kts | 309° |
| 2026-04-29 09:11 | 53.18455 | 20.99154 | 4123 ft | 164 kts | 309° |
| 2026-04-29 09:11 | 53.19131 | 20.97591 | 4059 ft | 168 kts | 313° |
| 2026-04-29 09:11 | 53.19879 | 20.96082 | 4024 ft | 169 kts | 314° |
| 2026-04-29 09:11 | 53.20669 | 20.94624 | 4019 ft | 168 kts | 317° |
| 2026-04-29 09:12 | 53.21491 | 20.93229 | 3989 ft | 170 kts | 317° |
| 2026-04-29 09:12 | 53.22242 | 20.91694 | 3917 ft | 171 kts | 311° |
| 2026-04-29 09:12 | 53.22949 | 20.90120 | 3805 ft | 167 kts | 313° |
| 2026-04-29 09:12 | 53.23662 | 20.88600 | 3687 ft | 164 kts | 312° |
| 2026-04-29 09:13 | 53.24322 | 20.87054 | 3569 ft | 163 kts | 310° |
| 2026-04-29 09:13 | 53.24947 | 20.85510 | 3358 ft | 159 kts | 309° |
| 2026-04-29 09:13 | 53.25589 | 20.84033 | 3126 ft | 156 kts | 315° |
| 2026-04-29 09:13 | 53.26366 | 20.82848 | 2974 ft | 146 kts | 332° |
| 2026-04-29 09:14 | 53.27271 | 20.82320 | 2961 ft | 133 kts | 357° |
| 2026-04-29 09:14 | 53.28143 | 20.82646 | 2935 ft | 128 kts | 19° |
| 2026-04-29 09:14 | 53.28978 | 20.83217 | 2914 ft | 131 kts | 20° |
| 2026-04-29 09:14 | 53.29801 | 20.83795 | 2935 ft | 129 kts | 18° |
| 2026-04-29 09:15 | 53.30655 | 20.84222 | 2980 ft | 127 kts | 12° |
| 2026-04-29 09:15 | 53.31510 | 20.84591 | 2998 ft | 127 kts | 15° |
| 2026-04-29 09:15 | 53.32352 | 20.85059 | 2995 ft | 128 kts | 19° |
| 2026-04-29 09:15 | 53.33201 | 20.85539 | 2997 ft | 130 kts | 16° |
| 2026-04-29 09:16 | 53.34079 | 20.86005 | 2918 ft | 136 kts | 17° |
| 2026-04-29 09:16 | 53.34984 | 20.86550 | 2780 ft | 139 kts | 18° |
| 2026-04-29 09:16 | 53.35896 | 20.87079 | 2595 ft | 138 kts | 15° |
| 2026-04-29 09:16 | 53.36783 | 20.87568 | 2435 ft | 132 kts | 15° |
| 2026-04-29 09:17 | 53.37645 | 20.88028 | 2266 ft | 129 kts | 15° |
| 2026-04-29 09:17 | 53.38496 | 20.88450 | 2141 ft | 126 kts | 16° |
| 2026-04-29 09:17 | 53.39299 | 20.88955 | 2051 ft | 119 kts | 16° |
| 2026-04-29 09:17 | 53.40061 | 20.89362 | 2004 ft | 109 kts | 13° |
| 2026-04-29 09:18 | 53.40779 | 20.89754 | 1912 ft | 108 kts | 15° |
| 2026-04-29 09:18 | 53.41525 | 20.90132 | 1701 ft | 117 kts | 13° |
| 2026-04-29 09:18 | 53.42289 | 20.90522 | 1528 ft | 120 kts | 15° |
| 2026-04-29 09:18 | 53.43083 | 20.90917 | 1341 ft | 116 kts | 14° |
| 2026-04-29 09:19 | 53.43764 | 20.91285 | 1182 ft | 94 kts | 15° |
| 2026-04-29 09:19 | 53.44385 | 20.91664 | 1054 ft | 98 kts | 15° |
| 2026-04-29 09:19 | 53.45023 | 20.91998 | 910 ft | 95 kts | 14° |
| 2026-04-29 09:19 | 53.45655 | 20.92369 | 805 ft | 98 kts | 15° |
| 2026-04-29 09:20 | 53.46298 | 20.92717 | 675 ft | 95 kts | 15° |
| 2026-04-29 09:20 | 53.46929 | 20.93064 | 521 ft | 96 kts | 16° |
| 2026-04-29 09:20 | 53.47348 | 20.93307 | 498 ft | 97 kts | 17° |
| 2026-04-29 09:20 | 53.48002 | 20.93718 | 752 ft | 109 kts | 17° |
| 2026-04-29 09:21 | 53.49005 | 20.94282 | 1376 ft | 113 kts | 13° |
| 2026-04-29 09:21 | 53.49516 | 20.94248 | 1724 ft | 112 kts | 338° |
| 2026-04-29 09:21 | 53.50077 | 20.92636 | 2129 ft | 141 kts | 278° |
| 2026-04-29 09:21 | 53.49800 | 20.91000 | 2465 ft | 154 kts | 245° |
| 2026-04-29 09:22 | 53.49363 | 20.90018 | 2725 ft | 155 kts | 235° |
| 2026-04-29 09:22 | 53.48697 | 20.88663 | 3194 ft | 151 kts | 234° |
| 2026-04-29 09:22 | 53.48009 | 20.87324 | 3604 ft | 151 kts | 237° |
| 2026-04-29 09:22 | 53.47342 | 20.85970 | 4043 ft | 151 kts | 237° |
| 2026-04-29 09:23 | 53.46631 | 20.84537 | 4110 ft | 165 kts | 234° |
| 2026-04-29 09:23 | 53.45851 | 20.83078 | 4128 ft | 172 kts | 232° |
| 2026-04-29 09:23 | 53.45107 | 20.81463 | 4062 ft | 180 kts | 241° |
| 2026-04-29 09:23 | 53.44454 | 20.79623 | 3937 ft | 185 kts | 247° |
| 2026-04-29 09:24 | 53.43864 | 20.77722 | 3911 ft | 184 kts | 244° |
| 2026-04-29 09:24 | 53.43147 | 20.75953 | 3906 ft | 184 kts | 237° |
| 2026-04-29 09:24 | 53.42352 | 20.74257 | 3907 ft | 184 kts | 231° |
| 2026-04-29 09:24 | 53.41399 | 20.72826 | 3937 ft | 186 kts | 225° |
| 2026-04-29 09:25 | 53.40407 | 20.71431 | 3924 ft | 188 kts | 222° |
| 2026-04-29 09:25 | 53.39367 | 20.70090 | 3907 ft | 188 kts | 222° |
| 2026-04-29 09:25 | 53.38372 | 20.68666 | 3914 ft | 187 kts | 226° |
| 2026-04-29 09:25 | 53.37446 | 20.67132 | 3906 ft | 187 kts | 232° |
| 2026-04-29 09:26 | 53.36556 | 20.65544 | 3892 ft | 187 kts | 231° |
| 2026-04-29 09:26 | 53.35464 | 20.64406 | 3870 ft | 187 kts | 193° |
| 2026-04-29 09:26 | 53.34291 | 20.64931 | 3631 ft | 175 kts | 127° |
| 2026-04-29 09:26 | 53.33909 | 20.66724 | 3379 ft | 159 kts | 85° |
| 2026-04-29 09:27 | 53.33960 | 20.68530 | 3152 ft | 155 kts | 78° |
| 2026-04-29 09:27 | 53.34078 | 20.70295 | 2942 ft | 153 kts | 75° |
| 2026-04-29 09:27 | 53.34279 | 20.71997 | 2848 ft | 149 kts | 73° |
| 2026-04-29 09:27 | 53.34397 | 20.73752 | 2746 ft | 152 kts | 80° |
| 2026-04-29 09:28 | 53.34313 | 20.75542 | 2631 ft | 159 kts | 97° |
| 2026-04-29 09:28 | 53.33942 | 20.77320 | 2477 ft | 163 kts | 105° |
| 2026-04-29 09:28 | 53.33554 | 20.79049 | 2493 ft | 154 kts | 103° |
| 2026-04-29 09:28 | 53.33236 | 20.80737 | 2483 ft | 150 kts | 100° |
| 2026-04-29 09:29 | 53.32940 | 20.82396 | 2478 ft | 148 kts | 99° |
| 2026-04-29 09:29 | 53.33537 | 20.85057 | 2406 ft | 130 kts | 30° |
| 2026-04-29 09:29 | 53.34299 | 20.85872 | 2337 ft | 129 kts | 24° |
| 2026-04-29 09:30 | 53.35096 | 20.86502 | 2299 ft | 127 kts | 22° |
| 2026-04-29 09:30 | 53.35913 | 20.87103 | 2215 ft | 128 kts | 18° |
| 2026-04-29 09:30 | 53.36753 | 20.87593 | 2167 ft | 127 kts | 14° |
| 2026-04-29 09:30 | 53.37614 | 20.87940 | 2135 ft | 129 kts | 12° |
| 2026-04-29 09:31 | 53.38474 | 20.88366 | 2041 ft | 128 kts | 16° |
| 2026-04-29 09:31 | 53.39311 | 20.88839 | 1962 ft | 124 kts | 16° |
| 2026-04-29 09:31 | 53.40048 | 20.89286 | 1835 ft | 107 kts | 15° |
| 2026-04-29 09:31 | 53.40757 | 20.89658 | 1693 ft | 106 kts | 14° |
| 2026-04-29 09:32 | 53.41456 | 20.89996 | 1603 ft | 104 kts | 14° |
| 2026-04-29 09:32 | 53.42143 | 20.90390 | 1532 ft | 105 kts | 17° |
| 2026-04-29 09:32 | 53.42812 | 20.90811 | 1469 ft | 98 kts | 16° |
| 2026-04-29 09:32 | 53.43429 | 20.91132 | 1266 ft | 92 kts | 15° |
| 2026-04-29 09:33 | 53.44028 | 20.91482 | 1082 ft | 92 kts | 14° |
| 2026-04-29 09:33 | 53.44628 | 20.91801 | 976 ft | 91 kts | 16° |
| 2026-04-29 09:33 | 53.45234 | 20.92132 | 869 ft | 92 kts | 18° |
| 2026-04-29 09:33 | 53.45836 | 20.92487 | 743 ft | 92 kts | 14° |
| 2026-04-29 09:34 | 53.46444 | 20.92793 | 628 ft | 91 kts | 14° |
| 2026-04-29 09:34 | 53.47040 | 20.93125 | 495 ft | 90 kts | 15° |
| 2026-04-29 09:34 | 53.47655 | 20.93479 | 580 ft | 99 kts | 17° |
| 2026-04-29 09:34 | 53.48368 | 20.93905 | 1011 ft | 110 kts | 18° |
| 2026-04-29 09:35 | 53.49079 | 20.94326 | 1696 ft | 106 kts | 17° |
| 2026-04-29 09:35 | 53.49809 | 20.94742 | 2157 ft | 116 kts | 17° |
| 2026-04-29 09:35 | 53.50621 | 20.95180 | 2399 ft | 127 kts | 16° |
| 2026-04-29 09:35 | 53.51442 | 20.95694 | 2746 ft | 124 kts | 19° |
| 2026-04-29 09:36 | 53.52290 | 20.96286 | 2974 ft | 136 kts | 21° |
| 2026-04-29 09:36 | 53.53120 | 20.96858 | 3516 ft | 127 kts | 19° |
| 2026-04-29 09:36 | 53.53960 | 20.97422 | 3870 ft | 130 kts | 20° |
| 2026-04-29 09:36 | 53.54787 | 20.97165 | 4011 ft | 141 kts | 317° |
| 2026-04-29 09:37 | 53.55072 | 20.95529 | 4069 ft | 161 kts | 264° |
| 2026-04-29 09:37 | 53.54527 | 20.93836 | 4106 ft | 173 kts | 232° |
| 2026-04-29 09:37 | 53.53712 | 20.92352 | 4169 ft | 173 kts | 231° |
| 2026-04-29 09:37 | 53.52897 | 20.90875 | 4191 ft | 171 kts | 232° |
| 2026-04-29 09:38 | 53.52116 | 20.89404 | 4224 ft | 168 kts | 233° |
| 2026-04-29 09:38 | 53.51325 | 20.87957 | 4215 ft | 167 kts | 229° |
| 2026-04-29 09:38 | 53.50473 | 20.86607 | 4177 ft | 170 kts | 226° |
| 2026-04-29 09:38 | 53.49687 | 20.85434 | 4087 ft | 174 kts | 225° |
| 2026-04-29 09:39 | 53.48734 | 20.84144 | 3987 ft | 177 kts | 221° |
| 2026-04-29 09:39 | 53.47743 | 20.82865 | 3862 ft | 178 kts | 222° |
| 2026-04-29 09:39 | 53.46887 | 20.81472 | 3955 ft | 167 kts | 229° |
| 2026-04-29 09:39 | 53.46075 | 20.80115 | 4042 ft | 161 kts | 232° |
| 2026-04-29 09:40 | 53.45272 | 20.78754 | 4009 ft | 167 kts | 229° |
| 2026-04-29 09:40 | 53.44411 | 20.77429 | 3995 ft | 169 kts | 227° |
| 2026-04-29 09:40 | 53.43549 | 20.76119 | 3970 ft | 170 kts | 227° |
| 2026-04-29 09:40 | 53.42665 | 20.74801 | 3930 ft | 172 kts | 228° |
| 2026-04-29 09:41 | 53.41796 | 20.73433 | 3968 ft | 168 kts | 226° |
| 2026-04-29 09:41 | 53.40914 | 20.72146 | 3969 ft | 169 kts | 224° |
| 2026-04-29 09:41 | 53.39980 | 20.70931 | 3933 ft | 170 kts | 223° |
| 2026-04-29 09:41 | 53.39045 | 20.69723 | 3941 ft | 170 kts | 221° |
| 2026-04-29 09:42 | 53.38104 | 20.68507 | 3921 ft | 171 kts | 223° |
| 2026-04-29 09:42 | 53.37221 | 20.67186 | 3917 ft | 170 kts | 227° |
| 2026-04-29 09:42 | 53.36348 | 20.65852 | 3919 ft | 171 kts | 218° |
| 2026-04-29 09:42 | 53.35220 | 20.65527 | 3980 ft | 169 kts | 160° |
| 2026-04-29 09:43 | 53.34377 | 20.66769 | 3937 ft | 165 kts | 115° |
| 2026-04-29 09:43 | 53.33940 | 20.68546 | 3659 ft | 168 kts | 102° |
| 2026-04-29 09:43 | 53.33506 | 20.70394 | 3351 ft | 173 kts | 111° |
| 2026-04-29 09:43 | 53.33028 | 20.72181 | 3231 ft | 165 kts | 106° |
| 2026-04-29 09:44 | 53.32546 | 20.73928 | 3048 ft | 166 kts | 112° |
| 2026-04-29 09:44 | 53.32044 | 20.75610 | 2985 ft | 158 kts | 107° |
| 2026-04-29 09:44 | 53.31596 | 20.77286 | 2932 ft | 159 kts | 108° |
| 2026-04-29 09:44 | 53.31145 | 20.78978 | 2853 ft | 161 kts | 108° |
| 2026-04-29 09:45 | 53.30931 | 20.80716 | 2841 ft | 145 kts | 72° |
| 2026-04-29 09:45 | 53.31367 | 20.82125 | 2853 ft | 135 kts | 46° |
| 2026-04-29 09:45 | 53.31952 | 20.83351 | 2807 ft | 136 kts | 44° |
| 2026-04-29 09:45 | 53.32641 | 20.84361 | 2703 ft | 131 kts | 28° |
| 2026-04-29 09:46 | 53.33424 | 20.85158 | 2517 ft | 132 kts | 27° |
| 2026-04-29 09:46 | 53.34221 | 20.85903 | 2316 ft | 130 kts | 22° |
| 2026-04-29 09:46 | 53.35059 | 20.86482 | 2130 ft | 129 kts | 15° |
| 2026-04-29 09:46 | 53.35901 | 20.86922 | 2007 ft | 124 kts | 12° |
| 2026-04-29 09:47 | 53.36727 | 20.87220 | 1953 ft | 118 kts | 11° |
| 2026-04-29 09:47 | 53.37506 | 20.87459 | 1943 ft | 109 kts | 9° |
| 2026-04-29 09:47 | 53.38210 | 20.87682 | 1976 ft | 98 kts | 10° |
| 2026-04-29 09:47 | 53.38869 | 20.87954 | 2003 ft | 97 kts | 9° |
| 2026-04-29 09:48 | 53.39545 | 20.88206 | 1964 ft | 101 kts | 11° |
| 2026-04-29 09:48 | 53.40207 | 20.88642 | 1947 ft | 103 kts | 22° |
| 2026-04-29 09:48 | 53.40817 | 20.89228 | 1820 ft | 96 kts | 27° |
| 2026-04-29 09:48 | 53.41384 | 20.89800 | 1619 ft | 94 kts | 27° |
| 2026-04-29 09:49 | 53.41933 | 20.90397 | 1429 ft | 94 kts | 26° |
| 2026-04-29 09:49 | 53.42507 | 20.90869 | 1304 ft | 90 kts | 21° |
| 2026-04-29 09:49 | 53.43059 | 20.91306 | 1199 ft | 88 kts | 21° |
| 2026-04-29 09:49 | 53.43618 | 20.91740 | 1143 ft | 87 kts | 17° |
| 2026-04-29 09:50 | 53.44211 | 20.92054 | 1059 ft | 91 kts | 12° |
| 2026-04-29 09:50 | 53.44859 | 20.92255 | 955 ft | 97 kts | 9° |
| 2026-04-29 09:50 | 53.45515 | 20.92441 | 815 ft | 93 kts | 8° |
| 2026-04-29 09:50 | 53.46151 | 20.92660 | 676 ft | 96 kts | 15° |
| 2026-04-29 09:51 | 53.46782 | 20.92983 | 562 ft | 93 kts | 17° |
| 2026-04-29 09:51 | 53.47357 | 20.93303 | 470 ft | 87 kts | 17° |
| 2026-04-29 09:51 | 53.48002 | 20.93688 | 702 ft | 106 kts | 18° |
| 2026-04-29 09:51 | 53.48690 | 20.94100 | 1240 ft | 103 kts | 19° |
| 2026-04-29 09:52 | 53.49397 | 20.94555 | 1616 ft | 114 kts | 13° |
| 2026-04-29 09:52 | 53.50161 | 20.94506 | 2122 ft | 114 kts | 341° |
| 2026-04-29 09:52 | 53.50792 | 20.93645 | 2538 ft | 123 kts | 306° |
| 2026-04-29 09:52 | 53.50972 | 20.92199 | 2980 ft | 136 kts | 268° |
| 2026-04-29 09:53 | 53.50670 | 20.90627 | 3385 ft | 144 kts | 255° |
| 2026-04-29 09:53 | 53.50282 | 20.89075 | 3829 ft | 145 kts | 250° |
| 2026-04-29 09:53 | 53.49805 | 20.87541 | 4050 ft | 154 kts | 246° |
| 2026-04-29 09:53 | 53.49262 | 20.85888 | 4051 ft | 166 kts | 245° |
| 2026-04-29 09:54 | 53.48700 | 20.84153 | 4049 ft | 172 kts | 248° |
| 2026-04-29 09:54 | 53.48119 | 20.82385 | 4088 ft | 175 kts | 242° |
| 2026-04-29 09:54 | 53.47372 | 20.80774 | 4163 ft | 177 kts | 228° |
| 2026-04-29 09:54 | 53.46427 | 20.79389 | 4132 ft | 183 kts | 223° |
| 2026-04-29 09:55 | 53.45437 | 20.78051 | 4164 ft | 183 kts | 222° |
| 2026-04-29 09:55 | 53.44398 | 20.76770 | 4118 ft | 188 kts | 219° |
| 2026-04-29 09:55 | 53.43303 | 20.75477 | 3941 ft | 196 kts | 217° |
| 2026-04-29 09:55 | 53.42069 | 20.74545 | 3982 ft | 193 kts | 194° |
| 2026-04-29 09:56 | 53.40743 | 20.74314 | 4050 ft | 190 kts | 179° |
| 2026-04-29 09:56 | 53.39443 | 20.74718 | 4008 ft | 191 kts | 158° |
| 2026-04-29 09:56 | 53.38261 | 20.75678 | 3959 ft | 192 kts | 146° |
| 2026-04-29 09:56 | 53.37132 | 20.76951 | 3884 ft | 194 kts | 140° |
| 2026-04-29 09:57 | 53.36049 | 20.78198 | 3964 ft | 190 kts | 143° |
| 2026-04-29 09:57 | 53.34883 | 20.79314 | 3893 ft | 194 kts | 151° |
| 2026-04-29 09:57 | 53.33645 | 20.80209 | 3891 ft | 194 kts | 156° |
| 2026-04-29 09:57 | 53.32369 | 20.80934 | 3931 ft | 191 kts | 163° |
| 2026-04-29 09:58 | 53.31089 | 20.81430 | 4008 ft | 189 kts | 166° |
| 2026-04-29 09:58 | 53.29801 | 20.81884 | 4051 ft | 188 kts | 167° |
| 2026-04-29 09:58 | 53.28531 | 20.82364 | 4096 ft | 188 kts | 164° |
| 2026-04-29 09:58 | 53.27249 | 20.82962 | 4011 ft | 195 kts | 162° |
| 2026-04-29 09:59 | 53.26051 | 20.83904 | 4058 ft | 187 kts | 136° |
| 2026-04-29 09:59 | 53.25133 | 20.85444 | 4040 ft | 188 kts | 129° |
| 2026-04-29 09:59 | 53.24244 | 20.87053 | 3999 ft | 189 kts | 128° |
| 2026-04-29 09:59 | 53.23352 | 20.88672 | 3977 ft | 189 kts | 128° |
| 2026-04-29 10:00 | 53.22473 | 20.90294 | 4004 ft | 187 kts | 128° |
| 2026-04-29 10:00 | 53.21634 | 20.91936 | 4054 ft | 185 kts | 123° |
| 2026-04-29 10:00 | 53.20863 | 20.93672 | 4021 ft | 188 kts | 122° |
| 2026-04-29 10:00 | 53.20055 | 20.95386 | 4006 ft | 188 kts | 127° |
| 2026-04-29 10:01 | 53.19230 | 20.97065 | 3985 ft | 187 kts | 124° |
| 2026-04-29 10:01 | 53.18433 | 20.98765 | 3961 ft | 185 kts | 124° |
| 2026-04-29 10:01 | 53.17664 | 21.00470 | 3987 ft | 182 kts | 123° |
| 2026-04-29 10:01 | 53.16882 | 21.02121 | 3934 ft | 184 kts | 125° |
| 2026-04-29 10:02 | 53.16072 | 21.03768 | 3933 ft | 184 kts | 125° |
| 2026-04-29 10:02 | 53.15268 | 21.05428 | 3918 ft | 184 kts | 125° |
| 2026-04-29 10:02 | 53.14447 | 21.07065 | 3893 ft | 183 kts | 126° |
| 2026-04-29 10:02 | 53.13651 | 21.08705 | 3889 ft | 181 kts | 124° |
| 2026-04-29 10:03 | 53.12903 | 21.10377 | 3904 ft | 179 kts | 121° |
| 2026-04-29 10:03 | 53.12189 | 21.12084 | 3906 ft | 179 kts | 120° |
| 2026-04-29 10:03 | 53.11516 | 21.13821 | 3920 ft | 177 kts | 118° |
| 2026-04-29 10:03 | 53.10834 | 21.15521 | 3973 ft | 176 kts | 120° |
| 2026-04-29 10:04 | 53.10137 | 21.17199 | 3991 ft | 177 kts | 120° |
| 2026-04-29 10:04 | 53.09430 | 21.18886 | 3987 ft | 180 kts | 122° |
| 2026-04-29 10:04 | 53.08619 | 21.20473 | 4012 ft | 180 kts | 127° |
| 2026-04-29 10:04 | 53.07796 | 21.22064 | 3993 ft | 181 kts | 126° |
| 2026-04-29 10:05 | 53.07019 | 21.23715 | 3965 ft | 182 kts | 122° |
| 2026-04-29 10:05 | 53.06268 | 21.25419 | 3921 ft | 184 kts | 123° |
| 2026-04-29 10:05 | 53.05494 | 21.27100 | 3936 ft | 181 kts | 123° |
| 2026-04-29 10:05 | 53.04725 | 21.28732 | 3980 ft | 179 kts | 124° |
| 2026-04-29 10:06 | 53.03946 | 21.30351 | 4015 ft | 179 kts | 124° |
| 2026-04-29 10:06 | 53.03173 | 21.31981 | 4030 ft | 180 kts | 123° |
| 2026-04-29 10:06 | 53.02427 | 21.33652 | 4060 ft | 179 kts | 120° |
| 2026-04-29 10:06 | 53.01740 | 21.35380 | 4034 ft | 181 kts | 119° |
| 2026-04-29 10:07 | 53.00984 | 21.37087 | 3987 ft | 185 kts | 126° |
| 2026-04-29 10:07 | 53.00186 | 21.38763 | 3942 ft | 185 kts | 123° |
| 2026-04-29 10:07 | 52.99400 | 21.40482 | 3876 ft | 187 kts | 123° |
| 2026-04-29 10:07 | 52.98612 | 21.42181 | 3885 ft | 185 kts | 124° |
| 2026-04-29 10:08 | 52.97815 | 21.43840 | 3897 ft | 183 kts | 124° |
| 2026-04-29 10:08 | 52.97019 | 21.45468 | 3939 ft | 180 kts | 124° |
| 2026-04-29 10:08 | 52.96240 | 21.47067 | 4010 ft | 177 kts | 125° |
| 2026-04-29 10:08 | 52.95460 | 21.48656 | 4005 ft | 180 kts | 125° |
| 2026-04-29 10:09 | 52.94681 | 21.50258 | 4079 ft | 176 kts | 123° |
| 2026-04-29 10:09 | 52.93995 | 21.51904 | 4096 ft | 178 kts | 121° |
| 2026-04-29 10:09 | 52.93240 | 21.53558 | 4064 ft | 181 kts | 124° |
| 2026-04-29 10:09 | 52.92447 | 21.55230 | 4044 ft | 182 kts | 123° |
| 2026-04-29 10:10 | 52.91930 | 21.56336 | 4033 ft | 183 kts | 123° |
| 2026-04-29 10:10 | 52.90891 | 21.58529 | 4046 ft | 183 kts | 123° |
| 2026-04-29 10:10 | 52.90126 | 21.60187 | 3970 ft | 178 kts | 122° |
| 2026-04-29 10:10 | 52.89629 | 21.61293 | 3896 ft | 176 kts | 122° |
| 2026-04-29 10:11 | 52.88670 | 21.63465 | 3668 ft | 178 kts | 122° |
| 2026-04-29 10:11 | 52.87930 | 21.65093 | 3537 ft | 177 kts | 123° |
| 2026-04-29 10:11 | 52.87419 | 21.66180 | 3399 ft | 178 kts | 124° |
| 2026-04-29 10:11 | 52.86639 | 21.67773 | 3194 ft | 179 kts | 125° |
| 2026-04-29 10:12 | 52.85870 | 21.69325 | 2901 ft | 171 kts | 124° |
| 2026-04-29 10:12 | 52.85134 | 21.70826 | 2620 ft | 165 kts | 124° |
| 2026-04-29 10:12 | 52.84413 | 21.72297 | 2298 ft | 164 kts | 124° |
| 2026-04-29 10:12 | 52.83689 | 21.73734 | 1953 ft | 166 kts | 125° |
| 2026-04-29 10:13 | 52.82958 | 21.75172 | 1673 ft | 158 kts | 126° |
| 2026-04-29 10:13 | 52.82278 | 21.76547 | 1405 ft | 151 kts | 124° |
| 2026-04-29 10:13 | 52.81654 | 21.77864 | 1249 ft | 136 kts | 113° |
| 2026-04-29 10:13 | 52.81340 | 21.79173 | 1321 ft | 113 kts | 98° |
| 2026-04-29 10:14 | 52.81129 | 21.80404 | 1396 ft | 111 kts | 96° |
| 2026-04-29 10:14 | 52.80951 | 21.81646 | 1399 ft | 111 kts | 85° |
| 2026-04-29 10:14 | 52.81257 | 21.82550 | 1389 ft | 81 kts | 18° |
| 2026-04-29 10:14 | 52.81800 | 21.82676 | 1193 ft | 79 kts | 5° |
| 2026-04-29 10:15 | 52.82386 | 21.82744 | 1120 ft | 86 kts | 4° |
| 2026-04-29 10:15 | 52.82986 | 21.82803 | 1125 ft | 84 kts | 354° |
| 2026-04-29 10:15 | 52.83295 | 21.82067 | 1078 ft | 93 kts | 292° |
| 2026-04-29 10:15 | 52.83477 | 21.81022 | 845 ft | 96 kts | 291° |
| 2026-04-29 10:16 | 52.83568 | 21.79939 | 619 ft | 94 kts | 280° |
| 2026-04-29 10:16 | 52.83635 | 21.78863 | 471 ft | 93 kts | 279° |
| 2026-04-29 10:16 | 52.83691 | 21.77891 | 407 ft | 68 kts | 274° |
| 2026-04-29 10:16 | 52.83725 | 21.77409 | 404 ft | 21 kts | 284° |
| 2026-04-29 10:17 | 52.83734 | 21.77294 | 403 ft | 8 kts | 265° |
| 2026-04-29 10:17 | 52.83721 | 21.77359 | 404 ft | 13 kts | 89° |
| 2026-04-29 10:17 | 52.83680 | 21.77458 | 404 ft | 9 kts | 182° |
| 2026-04-29 10:17 | 52.83647 | 21.77466 | 406 ft | 0 kts | 273° |